createdAt,value
2019-02-27T05:00:40.369Z,1024.17
2019-02-27T05:01:40.322Z,1024.10
2019-02-27T05:02:40.320Z,1024.16
2019-02-27T05:03:40.302Z,1024.11
2019-02-27T05:04:40.308Z,1024.14
2019-02-27T05:05:41.418Z,1024.10
2019-02-27T05:06:40.274Z,1024.12
2019-02-27T05:07:40.260Z,1024.11
2019-02-27T05:08:40.251Z,1024.07
2019-02-27T05:09:40.261Z,1024.09
2019-02-27T05:10:40.621Z,1024.10
2019-02-27T05:11:40.221Z,1024.04
2019-02-27T05:12:40.203Z,1024.10
2019-02-27T05:13:40.193Z,1024.08
2019-02-27T05:14:40.218Z,1024.09
2019-02-27T05:15:40.172Z,1024.03
2019-02-27T05:16:40.175Z,1024.04
2019-02-27T05:17:40.150Z,1024.03
2019-02-27T05:18:40.140Z,1024.04
2019-02-27T05:19:40.131Z,1024.04
2019-02-27T05:20:40.146Z,1023.98
2019-02-27T05:21:40.109Z,1024.02
2019-02-27T05:22:40.117Z,1024.01
2019-02-27T05:23:40.095Z,1024.01
2019-02-27T05:24:40.963Z,1023.97
2019-02-27T05:25:47.198Z,1023.96
2019-02-27T05:26:40.063Z,1023.96
2019-02-27T05:27:40.047Z,1023.99
2019-02-27T05:28:40.038Z,1023.92
2019-02-27T05:29:40.025Z,1023.99
2019-02-27T05:30:40.043Z,1023.93
2019-02-27T05:31:40.015Z,1023.91
2019-02-27T05:32:40.002Z,1023.98
2019-02-27T05:33:40.015Z,1023.97
2019-02-27T05:34:39.977Z,1023.96
2019-02-27T05:35:40.010Z,1023.97
2019-02-27T05:36:39.963Z,1023.94
2019-02-27T05:37:39.944Z,1023.90
2019-02-27T05:38:41.079Z,1023.91
2019-02-27T05:39:39.943Z,1023.91
2019-02-27T05:40:39.956Z,1023.89
2019-02-27T05:41:39.905Z,1023.91
2019-02-27T05:42:39.899Z,1023.89
2019-02-27T05:43:39.884Z,1023.90
2019-02-27T05:44:39.888Z,1023.84
2019-02-27T05:45:39.883Z,1023.86
2019-02-27T05:46:39.855Z,1023.84
2019-02-27T05:47:44.683Z,1023.83
2019-02-27T05:48:40.829Z,1023.85
2019-02-27T05:49:39.823Z,1023.92
2019-02-27T05:50:39.829Z,1023.93
2019-02-27T05:51:39.814Z,1023.90
2019-02-27T05:52:39.787Z,1023.94
2019-02-27T05:53:39.788Z,1023.99
2019-02-27T05:54:39.779Z,1023.94
2019-02-27T05:55:39.821Z,1023.91
2019-02-27T05:56:39.769Z,1023.95
2019-02-27T05:57:39.747Z,1023.92
2019-02-27T05:58:39.736Z,1023.93
2019-02-27T05:59:39.716Z,1023.98
2019-02-27T06:00:39.729Z,1023.93
2019-02-27T06:01:39.702Z,1023.89
2019-02-27T06:02:41.902Z,1023.89
2019-02-27T06:03:40.675Z,1023.87
2019-02-27T06:04:39.665Z,1023.90
2019-02-27T06:05:39.676Z,1023.85
2019-02-27T06:06:39.642Z,1023.86
2019-02-27T06:07:39.634Z,1023.88
2019-02-27T06:08:39.632Z,1023.87
2019-02-27T06:09:41.459Z,1023.90
2019-02-27T06:10:39.628Z,1023.92
2019-02-27T06:11:39.594Z,1023.89
2019-02-27T06:12:40.878Z,1023.86
2019-02-27T06:13:39.569Z,1023.91
2019-02-27T06:14:39.561Z,1023.90
2019-02-27T06:15:39.571Z,1023.95
2019-02-27T06:16:40.854Z,1023.91
2019-02-27T06:17:43.412Z,1023.91
2019-02-27T06:18:39.518Z,1023.92
2019-02-27T06:19:39.511Z,1023.89
2019-02-27T06:20:41.938Z,1023.82
2019-02-27T06:21:39.495Z,1023.86
2019-02-27T06:22:39.478Z,1023.86
2019-02-27T06:23:39.470Z,1023.82
2019-02-27T06:24:39.453Z,1023.89
2019-02-27T06:25:39.466Z,1023.90
2019-02-27T06:26:39.435Z,1023.95
2019-02-27T06:27:39.934Z,1023.95
2019-02-27T06:28:39.417Z,1023.93
2019-02-27T06:29:39.403Z,1023.95
2019-02-27T06:30:39.415Z,1023.92
2019-02-27T06:31:39.604Z,1023.90
2019-02-27T06:32:39.372Z,1023.91
2019-02-27T06:33:39.371Z,1023.91
2019-02-27T06:34:39.354Z,1023.91
2019-02-27T06:35:39.386Z,1023.88
2019-02-27T06:36:42.789Z,1023.83
2019-02-27T06:37:39.334Z,1023.86
2019-02-27T06:38:39.311Z,1023.86
2019-02-27T06:39:39.304Z,1023.86
2019-02-27T06:40:42.064Z,1023.82
2019-02-27T06:41:40.002Z,1023.80
2019-02-27T06:42:39.269Z,1023.81
2019-02-27T06:43:39.261Z,1023.82
2019-02-27T06:44:39.866Z,1023.83
2019-02-27T06:45:39.240Z,1023.75
2019-02-27T06:46:39.240Z,1023.81
2019-02-27T06:47:39.243Z,1023.74
2019-02-27T06:48:43.143Z,1023.73
2019-02-27T06:49:39.199Z,1023.75
2019-02-27T06:50:39.203Z,1023.71
2019-02-27T06:51:39.194Z,1023.74
2019-02-27T06:52:40.180Z,1023.69
2019-02-27T06:53:39.152Z,1023.67
2019-02-27T06:54:39.152Z,1023.65
2019-02-27T06:55:39.131Z,1023.64
2019-02-27T06:56:39.151Z,1023.68
2019-02-27T06:57:41.284Z,1023.66
2019-02-27T06:58:39.102Z,1023.73
2019-02-27T06:59:39.102Z,1023.72
2019-02-27T07:00:39.083Z,1023.72
2019-02-27T07:01:39.096Z,1023.71
2019-02-27T07:02:39.059Z,1023.70
2019-02-27T07:03:39.056Z,1023.71
2019-02-27T07:04:39.623Z,1023.73
2019-02-27T07:05:39.027Z,1023.71
2019-02-27T07:06:39.046Z,1023.74
2019-02-27T07:07:39.011Z,1023.68
2019-02-27T07:08:38.994Z,1023.72
2019-02-27T07:09:38.991Z,1023.68
2019-02-27T07:10:38.988Z,1023.69
2019-02-27T07:11:38.968Z,1023.67
2019-02-27T07:12:38.983Z,1023.67
2019-02-27T07:13:38.942Z,1023.68
2019-02-27T07:14:39.833Z,1023.69
2019-02-27T07:15:38.928Z,1023.71
2019-02-27T07:16:38.936Z,1023.68
2019-02-27T07:17:38.902Z,1023.68
2019-02-27T07:18:41.480Z,1023.70
2019-02-27T07:19:38.881Z,1023.71
2019-02-27T07:20:38.871Z,1023.73
2019-02-27T07:21:38.896Z,1023.73
2019-02-27T07:22:38.864Z,1023.73
2019-02-27T07:23:38.844Z,1023.63
2019-02-27T07:24:38.842Z,1023.64
2019-02-27T07:25:41.980Z,1023.62
2019-02-27T07:26:38.834Z,1023.59
2019-02-27T07:27:38.801Z,1023.57
2019-02-27T07:28:43.166Z,1023.57
2019-02-27T07:29:38.780Z,1023.58
2019-02-27T07:30:39.761Z,1023.55
2019-02-27T07:31:38.779Z,1023.62
2019-02-27T07:32:38.753Z,1023.64
2019-02-27T07:33:40.561Z,1023.65
2019-02-27T07:34:38.747Z,1023.64
2019-02-27T07:35:38.721Z,1023.66
2019-02-27T07:36:39.218Z,1023.66
2019-02-27T07:37:38.696Z,1023.72
2019-02-27T07:38:38.690Z,1023.72
2019-02-27T07:39:38.690Z,1023.69
2019-02-27T07:40:42.734Z,1023.73
2019-02-27T07:41:38.675Z,1023.70
2019-02-27T07:42:38.645Z,1023.70
2019-02-27T07:43:38.648Z,1023.68
2019-02-27T07:44:38.627Z,1023.67
2019-02-27T07:45:38.617Z,1023.58
2019-02-27T07:46:38.621Z,1023.68
2019-02-27T07:47:38.593Z,1023.61
2019-02-27T07:48:38.582Z,1023.62
2019-02-27T07:49:38.580Z,1023.63
2019-02-27T07:50:38.560Z,1023.64
2019-02-27T07:51:38.575Z,1023.64
2019-02-27T07:52:38.548Z,1023.65
2019-02-27T07:53:38.531Z,1023.68
2019-02-27T07:54:38.523Z,1023.65
2019-02-27T07:55:38.515Z,1023.67
2019-02-27T07:56:38.527Z,1023.64
2019-02-27T07:57:38.490Z,1023.68
2019-02-27T07:58:38.480Z,1023.65
2019-02-27T07:59:38.791Z,1023.64
2019-02-27T08:00:38.461Z,1023.64
2019-02-27T08:01:43.763Z,1023.66
2019-02-27T08:02:39.442Z,1023.65
2019-02-27T08:03:38.436Z,1023.67
2019-02-27T08:04:38.421Z,1023.67
2019-02-27T08:05:38.409Z,1023.65
2019-02-27T08:06:38.521Z,1023.62
2019-02-27T08:07:38.386Z,1023.60
2019-02-27T08:08:38.385Z,1023.56
2019-02-27T08:09:38.369Z,1023.57
2019-02-27T08:10:38.361Z,1023.59
2019-02-27T08:11:38.369Z,1023.60
2019-02-27T08:12:38.365Z,1023.60
2019-02-27T08:13:38.322Z,1023.55
2019-02-27T08:14:38.313Z,1023.51
2019-02-27T08:15:38.306Z,1023.52
2019-02-27T08:16:38.298Z,1023.50
2019-02-27T08:17:38.792Z,1023.55
2019-02-27T08:18:38.336Z,1023.59
2019-02-27T08:19:38.259Z,1023.59
2019-02-27T08:20:38.248Z,1023.53
2019-02-27T08:21:38.243Z,1023.53
2019-02-27T08:22:38.270Z,1023.53
2019-02-27T08:23:38.225Z,1023.58
2019-02-27T08:24:38.207Z,1023.47
2019-02-27T08:25:38.195Z,1023.44
2019-02-27T08:26:38.184Z,1023.48
2019-02-27T08:27:40.753Z,1023.49
2019-02-27T08:28:38.166Z,1023.42
2019-02-27T08:29:38.157Z,1023.36
2019-02-27T08:30:38.144Z,1023.36
2019-02-27T08:31:38.132Z,1023.40
2019-02-27T08:32:38.144Z,1023.46
2019-02-27T08:33:38.116Z,1023.47
2019-02-27T08:34:38.101Z,1023.43
2019-02-27T08:35:38.091Z,1023.48
2019-02-27T08:36:38.075Z,1023.50
2019-02-27T08:37:38.105Z,1023.47
2019-02-27T08:38:38.060Z,1023.49
2019-02-27T08:39:38.051Z,1023.50
2019-02-27T08:40:38.035Z,1023.52
2019-02-27T08:41:38.023Z,1023.47
2019-02-27T08:42:40.249Z,1023.47
2019-02-27T08:43:37.998Z,1023.42
2019-02-27T08:44:38.005Z,1023.41
2019-02-27T08:45:37.983Z,1023.40
2019-02-27T08:46:37.967Z,1023.43
2019-02-27T08:47:37.984Z,1023.41
2019-02-27T08:48:37.943Z,1023.39
2019-02-27T08:49:37.930Z,1023.33
2019-02-27T08:50:37.931Z,1023.31
2019-02-27T08:51:39.766Z,1023.34
2019-02-27T08:52:37.953Z,1023.37
2019-02-27T08:53:37.890Z,1023.34
2019-02-27T08:54:37.876Z,1023.25
2019-02-27T08:55:39.218Z,1023.30
2019-02-27T08:56:37.855Z,1023.31
2019-02-27T08:57:37.865Z,1023.33
2019-02-27T08:58:37.853Z,1023.30
2019-02-27T08:59:40.026Z,1023.26
2019-02-27T09:00:37.812Z,1023.24
2019-02-27T09:01:37.959Z,1023.22
2019-02-27T09:02:39.654Z,1023.17
2019-02-27T09:03:37.790Z,1023.16
2019-02-27T09:04:37.782Z,1023.18
2019-02-27T09:05:37.757Z,1023.24
2019-02-27T09:06:37.748Z,1023.18
2019-02-27T09:07:37.758Z,1023.20
2019-02-27T09:08:37.732Z,1023.18
2019-02-27T09:09:37.728Z,1023.10
2019-02-27T09:10:37.702Z,1023.14
2019-02-27T09:11:40.066Z,1023.12
2019-02-27T09:12:37.715Z,1023.18
2019-02-27T09:13:37.674Z,1023.19
2019-02-27T09:14:37.667Z,1023.22
2019-02-27T09:15:37.653Z,1023.19
2019-02-27T09:16:37.638Z,1023.16
2019-02-27T09:17:37.658Z,1023.18
2019-02-27T09:18:37.617Z,1023.16
2019-02-27T09:19:37.610Z,1023.12
2019-02-27T09:20:37.612Z,1023.11
2019-02-27T09:21:37.588Z,1023.14
2019-02-27T09:22:37.612Z,1023.12
2019-02-27T09:23:37.570Z,1023.02
2019-02-27T09:24:37.551Z,1023.09
2019-02-27T09:25:37.545Z,1023.05
2019-02-27T09:26:37.548Z,1023.01
2019-02-27T09:27:37.566Z,1022.98
2019-02-27T09:28:37.516Z,1022.98
2019-02-27T09:29:37.500Z,1022.99
2019-02-27T09:30:37.486Z,1022.99
2019-02-27T09:31:38.460Z,1023.02
2019-02-27T09:32:37.493Z,1023.06
2019-02-27T09:33:39.022Z,1023.10
2019-02-27T09:34:37.454Z,1022.99
2019-02-27T09:35:38.744Z,1022.97
2019-02-27T09:36:37.422Z,1023.03
2019-02-27T09:37:39.390Z,1023.02
2019-02-27T09:38:37.403Z,1023.07
2019-02-27T09:39:37.394Z,1023.04
2019-02-27T09:40:38.941Z,1022.94
2019-02-27T09:41:37.369Z,1022.95
2019-02-27T09:42:37.383Z,1022.96
2019-02-27T09:43:37.350Z,1022.99
2019-02-27T09:44:37.338Z,1022.96
2019-02-27T09:45:37.331Z,1023.00
2019-02-27T09:46:37.334Z,1022.95
2019-02-27T09:47:37.326Z,1022.96
2019-02-27T09:48:37.297Z,1022.95
2019-02-27T09:49:37.961Z,1022.91
2019-02-27T09:50:37.274Z,1022.92
2019-02-27T09:51:37.268Z,1022.91
2019-02-27T09:52:37.301Z,1022.98
2019-02-27T09:53:37.497Z,1022.87
2019-02-27T09:54:37.233Z,1022.92
2019-02-27T09:55:37.227Z,1022.91
2019-02-27T09:56:37.212Z,1022.83
2019-02-27T09:57:37.221Z,1022.88
2019-02-27T09:58:37.221Z,1022.87
2019-02-27T09:59:37.196Z,1022.95
2019-02-27T10:00:37.170Z,1022.88
2019-02-27T10:01:37.165Z,1022.88
2019-02-27T10:02:37.149Z,1022.90
2019-02-27T10:03:37.161Z,1022.86
2019-02-27T10:04:37.127Z,1022.87
2019-02-27T10:05:37.551Z,1022.83
2019-02-27T10:06:37.107Z,1022.88
2019-02-27T10:07:37.097Z,1022.83
2019-02-27T10:08:37.106Z,1022.86
2019-02-27T10:09:37.076Z,1022.84
2019-02-27T10:10:37.070Z,1022.81
2019-02-27T10:11:37.075Z,1022.76
2019-02-27T10:12:37.045Z,1022.79
2019-02-27T10:13:37.938Z,1022.77
2019-02-27T10:14:37.033Z,1022.81
2019-02-27T10:15:37.021Z,1022.82
2019-02-27T10:16:37.007Z,1022.81
2019-02-27T10:17:37.010Z,1022.76
2019-02-27T10:18:37.004Z,1022.70
2019-02-27T10:19:36.981Z,1022.73
2019-02-27T10:20:37.875Z,1022.78
2019-02-27T10:21:36.956Z,1022.80
2019-02-27T10:22:36.943Z,1022.71
2019-02-27T10:23:36.982Z,1022.66
2019-02-27T10:24:37.592Z,1022.67
2019-02-27T10:25:36.913Z,1022.66
2019-02-27T10:26:36.903Z,1022.66
2019-02-27T10:27:36.897Z,1022.66
2019-02-27T10:28:39.617Z,1022.64
2019-02-27T10:29:36.883Z,1022.63
2019-02-27T10:30:36.863Z,1022.61
2019-02-27T10:31:36.855Z,1022.66
2019-02-27T10:32:37.259Z,1022.62
2019-02-27T10:33:36.852Z,1022.59
2019-02-27T10:34:36.835Z,1022.63
2019-02-27T10:35:36.826Z,1022.62
2019-02-27T10:36:39.228Z,1022.61
2019-02-27T10:37:36.858Z,1022.62
2019-02-27T10:38:40.191Z,1022.59
2019-02-27T10:39:37.573Z,1022.61
2019-02-27T10:40:36.768Z,1022.59
2019-02-27T10:41:36.759Z,1022.57
2019-02-27T10:42:36.785Z,1022.49
2019-02-27T10:43:36.754Z,1022.51
2019-02-27T10:44:36.720Z,1022.56
2019-02-27T10:45:36.711Z,1022.48
2019-02-27T10:46:36.709Z,1022.56
2019-02-27T10:47:39.806Z,1022.54
2019-02-27T10:48:36.949Z,1022.49
2019-02-27T10:49:38.250Z,1022.52
2019-02-27T10:50:36.659Z,1022.51
2019-02-27T10:51:36.657Z,1022.51
2019-02-27T10:52:36.646Z,1022.48
2019-02-27T10:53:36.694Z,1022.49
2019-02-27T10:54:37.073Z,1022.51
2019-02-27T10:55:36.611Z,1022.52
2019-02-27T10:56:36.600Z,1022.52
2019-02-27T10:57:38.407Z,1022.52
2019-02-27T10:58:36.603Z,1022.50
2019-02-27T10:59:36.595Z,1022.48
2019-02-27T11:00:36.571Z,1022.55
2019-02-27T11:01:37.065Z,1022.53
2019-02-27T11:02:36.542Z,1022.52
2019-02-27T11:03:36.569Z,1022.53
2019-02-27T11:04:38.937Z,1022.49
2019-02-27T11:05:36.520Z,1022.49
2019-02-27T11:06:37.702Z,1022.48
2019-02-27T11:07:36.496Z,1022.48
2019-02-27T11:08:36.502Z,1022.51
2019-02-27T11:09:38.314Z,1022.52
2019-02-27T11:10:36.466Z,1022.48
2019-02-27T11:11:36.462Z,1022.44
2019-02-27T11:12:36.443Z,1022.42
2019-02-27T11:13:36.472Z,1022.44
2019-02-27T11:14:36.425Z,1022.37
2019-02-27T11:15:41.087Z,1022.35
2019-02-27T11:16:37.418Z,1022.33
2019-02-27T11:17:36.410Z,1022.31
2019-02-27T11:18:36.410Z,1022.32
2019-02-27T11:19:36.390Z,1022.27
2019-02-27T11:20:36.366Z,1022.22
2019-02-27T11:21:36.358Z,1022.23
2019-02-27T11:22:36.348Z,1022.21
2019-02-27T11:23:40.844Z,1022.21
2019-02-27T11:24:37.326Z,1022.19
2019-02-27T11:25:36.328Z,1022.12
2019-02-27T11:26:36.312Z,1022.10
2019-02-27T11:27:38.857Z,1022.10
2019-02-27T11:28:36.309Z,1022.09
2019-02-27T11:29:36.279Z,1022.10
2019-02-27T11:30:37.063Z,1022.09
2019-02-27T11:31:36.277Z,1022.01
2019-02-27T11:32:36.251Z,1021.94
2019-02-27T11:33:36.261Z,1021.97
2019-02-27T11:34:36.260Z,1021.91
2019-02-27T11:35:36.228Z,1021.91
2019-02-27T11:36:39.079Z,1021.91
2019-02-27T11:37:36.218Z,1021.88
2019-02-27T11:38:36.198Z,1021.87
2019-02-27T11:39:36.206Z,1021.89
2019-02-27T11:40:36.172Z,1021.89
2019-02-27T11:41:36.165Z,1021.88
2019-02-27T11:42:36.156Z,1021.85
2019-02-27T11:43:37.945Z,1021.85
2019-02-27T11:44:36.197Z,1021.82
2019-02-27T11:45:36.127Z,1021.82
2019-02-27T11:46:38.217Z,1021.82
2019-02-27T11:47:36.105Z,1021.78
2019-02-27T11:48:36.097Z,1021.78
2019-02-27T11:49:36.276Z,1021.72
2019-02-27T11:50:36.082Z,1021.56
2019-02-27T11:51:36.071Z,1021.35
2019-02-27T11:52:36.070Z,1021.28
2019-02-27T11:53:36.582Z,1021.36
2019-02-27T11:54:36.058Z,1021.43
2019-02-27T11:55:36.040Z,1021.51
2019-02-27T11:56:36.020Z,1021.48
2019-02-27T11:57:36.011Z,1021.56
2019-02-27T11:58:38.468Z,1021.51
2019-02-27T11:59:36.013Z,1021.49
2019-02-27T12:00:35.993Z,1021.46
2019-02-27T12:01:35.975Z,1021.50
2019-02-27T12:02:37.774Z,1021.47
2019-02-27T12:03:35.952Z,1021.45
2019-02-27T12:04:35.967Z,1021.48
2019-02-27T12:05:35.931Z,1021.42
2019-02-27T12:06:35.939Z,1021.38
2019-02-27T12:07:35.922Z,1021.38
2019-02-27T12:08:35.907Z,1021.40
2019-02-27T12:09:35.930Z,1021.37
2019-02-27T12:10:35.886Z,1021.36
2019-02-27T12:11:35.875Z,1021.32
2019-02-27T12:12:35.865Z,1021.36
2019-02-27T12:13:35.865Z,1021.32
2019-02-27T12:14:35.863Z,1021.30
2019-02-27T12:15:35.836Z,1021.30
2019-02-27T12:16:35.826Z,1021.30
2019-02-27T12:17:35.826Z,1021.26
2019-02-27T12:18:35.819Z,1021.23
2019-02-27T12:19:35.822Z,1021.19
2019-02-27T12:20:35.787Z,1021.14
2019-02-27T12:21:35.786Z,1021.11
2019-02-27T12:22:35.991Z,1021.11
2019-02-27T12:23:35.757Z,1021.10
2019-02-27T12:24:35.778Z,1021.10
2019-02-27T12:25:35.748Z,1021.10
2019-02-27T12:26:37.541Z,1021.04
2019-02-27T12:27:48.705Z,1021.06
2019-02-27T12:28:36.711Z,1021.05
2019-02-27T12:29:35.707Z,1021.05
2019-02-27T12:30:37.497Z,1021.03
2019-02-27T12:31:35.691Z,1021.03
2019-02-27T12:32:35.671Z,1020.96
2019-02-27T12:33:35.667Z,1020.99
2019-02-27T12:34:37.088Z,1020.95
2019-02-27T12:35:35.668Z,1020.88
2019-02-27T12:36:35.633Z,1020.88
2019-02-27T12:37:36.492Z,1020.88
2019-02-27T12:38:35.783Z,1020.87
2019-02-27T12:39:35.707Z,1020.85
2019-02-27T12:40:35.622Z,1020.80
2019-02-27T12:41:35.590Z,1020.74
2019-02-27T12:42:37.322Z,1020.77
2019-02-27T12:43:35.578Z,1020.73
2019-02-27T12:44:35.566Z,1020.70
2019-02-27T12:45:35.628Z,1020.67
2019-02-27T12:46:36.978Z,1020.56
2019-02-27T12:47:37.640Z,1020.58
2019-02-27T12:48:36.516Z,1020.52
2019-02-27T12:49:35.510Z,1020.53
2019-02-27T12:50:35.521Z,1020.45
2019-02-27T12:51:38.343Z,1020.35
2019-02-27T12:52:35.488Z,1020.25
2019-02-27T12:53:35.476Z,1020.18
2019-02-27T12:54:35.465Z,1020.10
2019-02-27T12:55:36.382Z,1020.15
2019-02-27T12:56:35.441Z,1020.09
2019-02-27T12:57:35.430Z,1020.03
2019-02-27T12:58:35.419Z,1020.00
2019-02-27T12:59:35.433Z,1020.01
2019-02-27T13:00:35.424Z,1020.02
2019-02-27T13:01:35.390Z,1020.00
2019-02-27T13:02:35.916Z,1019.92
2019-02-27T13:03:35.370Z,1019.89
2019-02-27T13:04:35.359Z,1019.93
2019-02-27T13:05:35.389Z,1019.92
2019-02-27T13:06:37.276Z,1019.97
2019-02-27T13:07:35.328Z,1019.96
2019-02-27T13:08:35.318Z,1019.91
2019-02-27T13:09:35.308Z,1019.94
2019-02-27T13:10:35.318Z,1019.87
2019-02-27T13:11:35.306Z,1019.87
2019-02-27T13:12:37.217Z,1019.86
2019-02-27T13:13:35.275Z,1019.82
2019-02-27T13:14:35.254Z,1019.91
2019-02-27T13:15:35.267Z,1019.85
2019-02-27T13:16:35.233Z,1019.84
2019-02-27T13:17:35.242Z,1019.80
2019-02-27T13:18:35.218Z,1019.79
2019-02-27T13:19:35.205Z,1019.78
2019-02-27T13:20:35.210Z,1019.73
2019-02-27T13:21:35.183Z,1019.72
2019-02-27T13:22:35.177Z,1019.63
2019-02-27T13:23:36.322Z,1019.67
2019-02-27T13:24:35.159Z,1019.67
2019-02-27T13:25:35.163Z,1019.61
2019-02-27T13:26:35.426Z,1019.58
2019-02-27T13:27:35.121Z,1019.60
2019-02-27T13:28:35.109Z,1019.53
2019-02-27T13:29:35.112Z,1019.53
2019-02-27T13:30:35.115Z,1019.51
2019-02-27T13:31:35.076Z,1019.52
2019-02-27T13:32:35.071Z,1019.51
2019-02-27T13:33:35.456Z,1019.47
2019-02-27T13:34:35.044Z,1019.46
2019-02-27T13:35:35.063Z,1019.43
2019-02-27T13:36:35.026Z,1019.39
2019-02-27T13:37:35.015Z,1019.41
2019-02-27T13:38:36.883Z,1019.43
2019-02-27T13:39:35.006Z,1019.42
2019-02-27T13:40:35.761Z,1019.39
2019-02-27T13:41:34.983Z,1019.40
2019-02-27T13:42:34.963Z,1019.33
2019-02-27T13:43:34.956Z,1019.33
2019-02-27T13:44:35.311Z,1019.27
2019-02-27T13:45:34.950Z,1019.27
2019-02-27T13:46:34.918Z,1019.23
2019-02-27T13:47:34.917Z,1019.23
2019-02-27T13:48:37.356Z,1019.16
2019-02-27T13:49:34.891Z,1019.21
2019-02-27T13:50:34.878Z,1019.19
2019-02-27T13:51:37.207Z,1019.15
2019-02-27T13:52:34.854Z,1019.11
2019-02-27T13:53:34.853Z,1019.13
2019-02-27T13:54:38.025Z,1019.05
2019-02-27T13:55:34.824Z,1019.00
2019-02-27T13:56:34.835Z,1019.02
2019-02-27T13:57:34.798Z,1018.97
2019-02-27T13:58:36.459Z,1018.98
2019-02-27T13:59:35.905Z,1018.92
2019-02-27T14:00:34.768Z,1018.93
2019-02-27T14:01:35.048Z,1018.91
2019-02-27T14:02:38.256Z,1018.90
2019-02-27T14:03:35.534Z,1018.92
2019-02-27T14:04:34.722Z,1018.86
2019-02-27T14:05:35.993Z,1018.91
2019-02-27T14:06:34.728Z,1018.91
2019-02-27T14:07:34.697Z,1018.91
2019-02-27T14:08:34.677Z,1018.87
2019-02-27T14:09:34.667Z,1018.92
2019-02-27T14:10:34.665Z,1018.85
2019-02-27T14:11:34.676Z,1018.83
2019-02-27T14:12:36.396Z,1018.80
2019-02-27T14:13:34.623Z,1018.81
2019-02-27T14:14:34.618Z,1018.78
2019-02-27T14:15:34.602Z,1018.74
2019-02-27T14:16:35.403Z,1018.74
2019-02-27T14:17:34.594Z,1018.76
2019-02-27T14:18:34.569Z,1018.71
2019-02-27T14:19:36.439Z,1018.72
2019-02-27T14:20:34.548Z,1018.69
2019-02-27T14:21:35.600Z,1018.68
2019-02-27T14:22:34.525Z,1018.63
2019-02-27T14:23:34.516Z,1018.59
2019-02-27T14:24:34.520Z,1018.61
2019-02-27T14:25:34.494Z,1018.55
2019-02-27T14:26:34.512Z,1018.58
2019-02-27T14:27:34.473Z,1018.53
2019-02-27T14:28:34.462Z,1018.49
2019-02-27T14:29:34.451Z,1018.51
2019-02-27T14:30:35.527Z,1018.48
2019-02-27T14:31:34.453Z,1018.48
2019-02-27T14:32:34.422Z,1018.48
2019-02-27T14:33:34.409Z,1018.49
2019-02-27T14:34:34.399Z,1018.43
2019-02-27T14:35:36.331Z,1018.43
2019-02-27T14:36:34.421Z,1018.40
2019-02-27T14:37:34.367Z,1018.38
2019-02-27T14:38:34.356Z,1018.37
2019-02-27T14:39:34.364Z,1018.40
2019-02-27T14:40:37.733Z,1018.36
2019-02-27T14:41:34.343Z,1018.34
2019-02-27T14:42:34.313Z,1018.35
2019-02-27T14:43:34.327Z,1018.37
2019-02-27T14:44:34.291Z,1018.34
2019-02-27T14:45:39.430Z,1018.35
2019-02-27T14:46:35.288Z,1018.30
2019-02-27T14:47:34.259Z,1018.31
2019-02-27T14:48:34.253Z,1018.27
2019-02-27T14:49:34.260Z,1018.24
2019-02-27T14:50:34.855Z,1018.22
2019-02-27T14:51:34.243Z,1018.17
2019-02-27T14:52:34.206Z,1018.20
2019-02-27T14:53:34.196Z,1018.18
2019-02-27T14:54:34.192Z,1018.17
2019-02-27T14:55:35.929Z,1018.13
2019-02-27T14:56:34.196Z,1018.11
2019-02-27T14:57:34.166Z,1018.14
2019-02-27T14:58:34.142Z,1018.10
2019-02-27T14:59:34.230Z,1018.06
2019-02-27T15:00:34.125Z,1018.06
2019-02-27T15:01:34.142Z,1018.08
2019-02-27T15:02:34.117Z,1018.05
2019-02-27T15:03:34.094Z,1018.03
2019-02-27T15:04:34.081Z,1018.02
2019-02-27T15:05:34.072Z,1018.05
2019-02-27T15:06:34.102Z,1018.02
2019-02-27T15:07:34.054Z,1017.98
2019-02-27T15:08:34.043Z,1017.99
2019-02-27T15:09:36.561Z,1017.98
2019-02-27T15:10:34.020Z,1017.96
2019-02-27T15:11:34.031Z,1017.96
2019-02-27T15:12:34.016Z,1017.97
2019-02-27T15:13:33.996Z,1017.94
2019-02-27T15:14:33.974Z,1017.94
2019-02-27T15:15:33.965Z,1017.94
2019-02-27T15:16:33.954Z,1017.91
2019-02-27T15:17:33.974Z,1017.89
2019-02-27T15:18:33.937Z,1017.86
2019-02-27T15:19:35.444Z,1017.88
2019-02-27T15:20:34.654Z,1017.86
2019-02-27T15:21:33.902Z,1017.86
2019-02-27T15:22:33.907Z,1017.82
2019-02-27T15:23:33.905Z,1017.81
2019-02-27T15:24:34.936Z,1017.85
2019-02-27T15:25:33.876Z,1017.80
2019-02-27T15:26:33.854Z,1017.84
2019-02-27T15:27:33.863Z,1017.77
2019-02-27T15:28:34.063Z,1017.81
2019-02-27T15:29:33.843Z,1017.79
2019-02-27T15:30:33.815Z,1017.75
2019-02-27T15:31:33.796Z,1017.73
2019-02-27T15:32:33.924Z,1017.71
2019-02-27T15:33:35.927Z,1017.71
2019-02-27T15:34:33.762Z,1017.73
2019-02-27T15:35:33.752Z,1017.68
2019-02-27T15:36:33.753Z,1017.66
2019-02-27T15:37:37.183Z,1017.63
2019-02-27T15:38:33.727Z,1017.61
2019-02-27T15:39:33.724Z,1017.62
2019-02-27T15:40:33.700Z,1017.57
2019-02-27T15:41:35.446Z,1017.60
2019-02-27T15:42:33.699Z,1017.54
2019-02-27T15:43:33.672Z,1017.48
2019-02-27T15:44:34.518Z,1017.49
2019-02-27T15:45:33.666Z,1017.49
2019-02-27T15:46:33.647Z,1017.45
2019-02-27T15:47:33.858Z,1017.40
2019-02-27T15:48:33.629Z,1017.39
2019-02-27T15:49:33.606Z,1017.39
2019-02-27T15:50:33.604Z,1017.36
2019-02-27T15:51:33.584Z,1017.34
2019-02-27T15:52:34.219Z,1017.33
2019-02-27T15:53:33.568Z,1017.30
2019-02-27T15:54:33.555Z,1017.34
2019-02-27T15:55:35.236Z,1017.31
2019-02-27T15:56:33.552Z,1017.28
2019-02-27T15:57:33.574Z,1017.27
2019-02-27T15:58:33.511Z,1017.24
2019-02-27T15:59:33.521Z,1017.23
2019-02-27T16:00:33.490Z,1017.22
2019-02-27T16:01:33.500Z,1017.20
2019-02-27T16:02:34.027Z,1017.18
2019-02-27T16:03:33.468Z,1017.21
2019-02-27T16:04:33.453Z,1017.18
2019-02-27T16:05:33.439Z,1017.17
2019-02-27T16:06:33.442Z,1017.13
2019-02-27T16:07:33.437Z,1017.15
2019-02-27T16:08:33.417Z,1017.12
2019-02-27T16:09:33.399Z,1017.12
2019-02-27T16:10:33.388Z,1017.13
2019-02-27T16:11:33.402Z,1017.12
2019-02-27T16:12:33.390Z,1017.08
2019-02-27T16:13:34.686Z,1017.08
2019-02-27T16:14:33.369Z,1017.09
2019-02-27T16:15:33.334Z,1017.04
2019-02-27T16:16:33.325Z,1017.07
2019-02-27T16:17:33.333Z,1017.08
2019-02-27T16:18:33.940Z,1017.03
2019-02-27T16:19:33.307Z,1017.01
2019-02-27T16:20:33.287Z,1017.05
2019-02-27T16:21:33.319Z,1017.04
2019-02-27T16:22:33.298Z,1017.04
2019-02-27T16:23:37.203Z,1017.00
2019-02-27T16:24:33.239Z,1016.99
2019-02-27T16:25:33.240Z,1017.00
2019-02-27T16:26:33.234Z,1016.94
2019-02-27T16:27:35.385Z,1016.97
2019-02-27T16:28:33.228Z,1017.00
2019-02-27T16:29:33.205Z,1016.96
2019-02-27T16:30:33.181Z,1016.99
2019-02-27T16:31:33.182Z,1017.00
2019-02-27T16:32:33.159Z,1016.98
2019-02-27T16:33:33.174Z,1016.94
2019-02-27T16:34:34.085Z,1016.96
2019-02-27T16:35:33.133Z,1016.92
2019-02-27T16:36:36.144Z,1016.93
2019-02-27T16:37:33.116Z,1016.94
2019-02-27T16:38:33.113Z,1016.89
2019-02-27T16:39:33.080Z,1016.93
2019-02-27T16:40:33.077Z,1016.88
2019-02-27T16:41:33.065Z,1016.88
2019-02-27T16:42:33.057Z,1016.81
2019-02-27T16:43:33.061Z,1016.85
2019-02-27T16:44:33.033Z,1016.83
2019-02-27T16:45:36.480Z,1016.82
2019-02-27T16:46:33.009Z,1016.83
2019-02-27T16:47:33.015Z,1016.79
2019-02-27T16:48:34.501Z,1016.79
2019-02-27T16:49:32.975Z,1016.82
2019-02-27T16:50:32.966Z,1016.83
2019-02-27T16:51:34.685Z,1016.76
2019-02-27T16:52:32.946Z,1016.78
2019-02-27T16:53:32.977Z,1016.81
2019-02-27T16:54:32.923Z,1016.80
2019-02-27T16:55:35.988Z,1016.78
2019-02-27T16:56:32.944Z,1016.76
2019-02-27T16:57:32.891Z,1016.74
2019-02-27T16:58:33.767Z,1016.74
2019-02-27T16:59:32.874Z,1016.71
2019-02-27T17:00:32.870Z,1016.71
2019-02-27T17:01:32.847Z,1016.66
2019-02-27T17:02:35.502Z,1016.68
2019-02-27T17:03:33.852Z,1016.64
2019-02-27T17:04:34.286Z,1016.57
2019-02-27T17:05:32.804Z,1016.63